Orlando, Florida
Traffic Map
Current Weather Conditions
Orlando, Florida
Clear
Clear
25°
Feels Like: 26°
Wind Chill: 25° Ceiling: Unl
Heat Index: 26° Visibility: 10mi
Dew Point: 19° Wind: 5mph
Humidity: 71% Direction: 230° (SW)
Pressure: 29.88in Gusts: 0mph
Raw Report DataKORL 262153Z 23004KT 10SM CLR 25/19 A2988 RMK AO2 RAE09 SLP123 P0000 T02500194
Traffic Incident Summary
Active as of:
Severity:
Category:
InformationThere was an issue retrieving the traffic information for this location. Please try a different location or try again shortly.
Advertisements
Track Severe Weather on mobile